createdAt,value
2019-02-05T00:00:45.708Z,10.63
2019-02-05T00:03:17.618Z,10.98
2019-02-05T00:05:46.910Z,11.38
2019-02-05T00:08:16.134Z,10.45
2019-02-05T00:10:45.373Z,10.55
2019-02-05T00:13:14.952Z,10.98
2019-02-05T00:15:44.190Z,12.65
2019-02-05T00:18:13.696Z,10.70
2019-02-05T00:20:42.937Z,11.93
2019-02-05T00:23:12.136Z,11.37
2019-02-05T00:25:41.368Z,10.38
2019-02-05T00:28:10.913Z,10.80
2019-02-05T00:30:40.140Z,11.77
2019-02-05T00:33:09.414Z,11.35
2019-02-05T00:35:38.656Z,13.78
2019-02-05T00:38:07.851Z,12.13
2019-02-05T00:40:37.060Z,12.90
2019-02-05T00:43:06.683Z,12.78
2019-02-05T00:45:35.875Z,16.00
2019-02-05T00:48:05.174Z,11.45
2019-02-05T00:50:34.369Z,12.88
2019-02-05T00:53:04.347Z,12.63
2019-02-05T00:55:33.604Z,10.35
2019-02-05T00:58:03.226Z,11.20
2019-02-05T01:00:33.164Z,12.53
2019-02-05T01:03:02.489Z,14.10
2019-02-05T01:05:31.733Z,11.83
2019-02-05T01:08:01.408Z,13.83
2019-02-05T01:10:30.903Z,11.30
2019-02-05T01:13:00.136Z,11.35
2019-02-05T01:15:29.339Z,11.55
2019-02-05T01:17:58.585Z,11.15
2019-02-05T01:20:27.849Z,13.45
2019-02-05T01:22:57.080Z,12.40
2019-02-05T01:25:26.284Z,12.30
2019-02-05T01:27:55.495Z,12.55
2019-02-05T01:30:26.912Z,14.10
2019-02-05T01:32:56.144Z,15.40
2019-02-05T01:35:25.363Z,13.90
2019-02-05T01:37:54.768Z,13.48
2019-02-05T01:40:26.449Z,13.13
2019-02-05T01:42:55.835Z,13.85
2019-02-05T01:45:25.482Z,13.30
2019-02-05T01:47:54.757Z,14.40
2019-02-05T01:50:27.906Z,14.13
2019-02-05T01:52:57.273Z,15.43
2019-02-05T01:55:26.475Z,14.38
2019-02-05T01:57:55.791Z,13.98
2019-02-05T02:00:30.808Z,14.53
2019-02-05T02:03:00.334Z,15.37
2019-02-05T02:05:29.540Z,14.78
2019-02-05T02:07:59.166Z,14.35
2019-02-05T02:10:30.159Z,15.53
2019-02-05T02:12:59.400Z,17.70
2019-02-05T02:15:29.039Z,14.15
2019-02-05T02:17:58.262Z,15.65
2019-02-05T02:20:27.468Z,15.00
2019-02-05T02:22:57.159Z,13.53
2019-02-05T02:25:26.359Z,15.00
2019-02-05T02:27:55.602Z,18.70
2019-02-05T02:30:26.942Z,13.40
2019-02-05T02:32:56.176Z,14.58
2019-02-05T02:35:25.380Z,15.93
2019-02-05T02:37:54.889Z,14.50
2019-02-05T02:40:24.128Z,14.63
2019-02-05T02:42:53.358Z,15.15
2019-02-05T02:45:22.554Z,15.05
2019-02-05T02:47:51.809Z,18.30
2019-02-05T02:50:22.179Z,14.95
2019-02-05T02:52:51.695Z,15.53
2019-02-05T02:55:20.901Z,13.30
2019-02-05T02:57:50.137Z,16.93
2019-02-05T03:00:21.170Z,16.57
2019-02-05T03:02:51.682Z,17.40
2019-02-05T03:05:23.428Z,13.50
2019-02-05T03:07:52.622Z,14.85
2019-02-05T03:10:23.755Z,13.90
2019-02-05T03:12:53.525Z,18.55
2019-02-05T03:15:22.717Z,13.98
2019-02-05T03:17:51.992Z,17.80
2019-02-05T03:20:21.227Z,15.13
2019-02-05T03:22:50.839Z,14.80
2019-02-05T03:25:21.985Z,17.02
2019-02-05T03:27:53.831Z,16.50
2019-02-05T03:30:23.728Z,14.63
2019-02-05T03:32:54.033Z,16.52
2019-02-05T03:35:24.233Z,17.05
2019-02-05T03:37:53.540Z,15.10
2019-02-05T03:40:31.707Z,16.97
2019-02-05T03:43:01.935Z,15.08
2019-02-05T03:45:31.518Z,16.20
2019-02-05T03:48:02.746Z,15.90
2019-02-05T03:50:33.848Z,16.20
2019-02-05T03:53:25.549Z,18.92
2019-02-05T03:56:19.300Z,16.15
2019-02-05T03:58:52.161Z,15.18
2019-02-05T04:01:42.518Z,14.18
2019-02-05T04:04:20.304Z,14.68
2019-02-05T04:07:07.550Z,16.20
2019-02-05T04:09:48.990Z,15.85
2019-02-05T04:12:24.595Z,17.77
2019-02-05T04:14:57.473Z,15.45
2019-02-05T04:17:44.803Z,19.27
2019-02-05T04:20:50.586Z,16.65
2019-02-05T04:23:38.077Z,16.62
2019-02-05T04:26:19.284Z,17.37
2019-02-05T04:29:09.114Z,16.20
2019-02-05T04:31:44.227Z,16.02
2019-02-05T04:34:16.735Z,15.80
2019-02-05T04:37:04.632Z,16.77
2019-02-05T04:39:43.161Z,17.55
2019-02-05T04:42:18.299Z,18.82
2019-02-05T04:45:03.346Z,17.60
2019-02-05T04:47:56.722Z,19.25
2019-02-05T04:50:38.151Z,15.08
2019-02-05T04:53:25.885Z,17.50
2019-02-05T04:56:01.294Z,17.77
2019-02-05T04:58:51.740Z,17.85
2019-02-05T05:01:33.098Z,18.67
2019-02-05T05:04:11.311Z,19.00
2019-02-05T05:07:11.286Z,18.42
2019-02-05T05:09:55.609Z,17.17
2019-02-05T05:12:25.730Z,17.95
2019-02-05T05:14:54.992Z,17.73
2019-02-05T05:17:24.219Z,16.57
2019-02-05T05:19:53.457Z,20.17
2019-02-05T05:22:22.663Z,20.00
2019-02-05T05:24:51.900Z,19.95
2019-02-05T05:27:21.198Z,15.83
2019-02-05T05:29:50.407Z,16.65
2019-02-05T05:32:19.640Z,18.32
2019-02-05T05:34:48.852Z,17.50
2019-02-05T05:37:17.159Z,16.33
2019-02-05T05:39:46.360Z,17.10
2019-02-05T05:42:15.567Z,21.23
2019-02-05T05:44:45.201Z,19.15
2019-02-05T05:47:14.392Z,17.45
2019-02-05T05:49:43.626Z,18.30
2019-02-05T05:52:12.828Z,17.65
2019-02-05T05:54:42.433Z,16.50
2019-02-05T05:57:11.676Z,16.60
2019-02-05T05:59:40.882Z,17.80
2019-02-05T06:02:10.128Z,16.93
2019-02-05T06:04:39.589Z,16.30
2019-02-05T06:07:08.806Z,18.34
2019-02-05T06:09:38.044Z,16.95
2019-02-05T06:12:07.248Z,16.10
2019-02-05T06:14:36.486Z,17.32
2019-02-05T06:17:06.179Z,15.53
2019-02-05T06:19:35.423Z,16.62
2019-02-05T06:22:04.728Z,19.73
2019-02-05T06:24:34.405Z,18.67
2019-02-05T06:27:04.238Z,17.25
2019-02-05T06:29:33.484Z,16.07
2019-02-05T06:32:02.721Z,19.12
2019-02-05T06:34:31.924Z,22.40
2019-02-05T06:37:01.173Z,15.88
2019-02-05T06:39:30.376Z,17.70
2019-02-05T06:41:59.608Z,17.48
2019-02-05T06:44:28.896Z,18.35
2019-02-05T06:46:58.281Z,18.43
2019-02-05T06:49:27.754Z,17.70
2019-02-05T06:51:56.996Z,16.42
2019-02-05T06:54:26.230Z,19.33
2019-02-05T06:56:55.761Z,18.35
2019-02-05T06:59:25.077Z,19.15
2019-02-05T07:01:54.318Z,18.02
2019-02-05T07:04:23.938Z,16.97
2019-02-05T07:06:53.267Z,19.82
2019-02-05T07:09:22.619Z,19.48
2019-02-05T07:11:51.859Z,20.27
2019-02-05T07:14:21.103Z,20.70
2019-02-05T07:16:50.377Z,19.32
2019-02-05T07:19:19.707Z,19.12
2019-02-05T07:21:49.264Z,19.32
2019-02-05T07:24:18.459Z,20.25
2019-02-05T07:26:47.724Z,19.55
2019-02-05T07:29:16.924Z,25.77
2019-02-05T07:31:46.176Z,21.33
2019-02-05T07:34:15.381Z,20.82
2019-02-05T07:36:44.992Z,19.85
2019-02-05T07:39:14.284Z,19.57
2019-02-05T07:41:43.521Z,20.68
2019-02-05T07:44:12.725Z,21.33
2019-02-05T07:46:41.938Z,20.30
2019-02-05T07:49:11.177Z,21.97
2019-02-05T07:51:40.423Z,21.10
2019-02-05T07:54:09.640Z,21.35
2019-02-05T07:56:40.682Z,23.42
2019-02-05T07:59:10.655Z,23.07
2019-02-05T08:01:40.050Z,22.17
2019-02-05T08:04:09.291Z,23.62
2019-02-05T08:06:38.506Z,23.75
2019-02-05T08:09:09.044Z,28.80
2019-02-05T08:11:41.343Z,24.75
2019-02-05T08:14:11.545Z,25.00
2019-02-05T08:16:40.758Z,24.87
2019-02-05T08:19:09.999Z,28.38
2019-02-05T08:21:39.283Z,23.57
2019-02-05T08:24:08.485Z,26.14
2019-02-05T08:26:37.739Z,24.40
2019-02-05T08:29:06.981Z,25.50
2019-02-05T08:31:36.221Z,24.43
2019-02-05T08:34:05.980Z,25.90
2019-02-05T08:36:35.574Z,28.00
2019-02-05T08:39:07.182Z,26.02
2019-02-05T08:41:37.412Z,28.62
2019-02-05T08:44:06.618Z,27.90
2019-02-05T08:46:36.040Z,25.92
2019-02-05T08:49:05.577Z,25.72
2019-02-05T08:51:34.843Z,26.82
2019-02-05T08:54:04.263Z,30.10
2019-02-05T08:56:33.521Z,30.92
2019-02-05T08:59:02.784Z,28.47
2019-02-05T09:01:31.992Z,31.07
2019-02-05T09:04:01.201Z,27.67
2019-02-05T09:06:30.438Z,28.15
2019-02-05T09:08:59.712Z,27.95
2019-02-05T09:11:28.965Z,28.60
2019-02-05T09:13:58.170Z,28.75
2019-02-05T09:16:27.412Z,26.25
2019-02-05T09:18:56.951Z,28.25
2019-02-05T09:21:26.216Z,28.77
2019-02-05T09:23:55.567Z,27.22
2019-02-05T09:26:24.783Z,26.82
2019-02-05T09:28:54.049Z,29.10
2019-02-05T09:31:23.329Z,28.77
2019-02-05T09:33:52.592Z,30.30
2019-02-05T09:36:21.974Z,26.50
2019-02-05T09:38:51.218Z,25.52
2019-02-05T09:41:20.475Z,26.97
2019-02-05T09:43:49.680Z,27.25
2019-02-05T09:46:18.940Z,25.12
2019-02-05T09:48:48.157Z,25.72
2019-02-05T09:51:17.403Z,26.35
2019-02-05T09:53:46.621Z,27.40
2019-02-05T09:56:15.866Z,26.77
2019-02-05T09:58:45.075Z,28.77
2019-02-05T10:01:14.478Z,27.07
2019-02-05T10:03:43.683Z,28.85
2019-02-05T10:06:12.928Z,24.15
2019-02-05T10:08:42.553Z,26.40
2019-02-05T10:11:11.768Z,26.85
2019-02-05T10:13:41.017Z,26.02
2019-02-05T10:16:10.221Z,23.25
2019-02-05T10:18:39.519Z,22.67
2019-02-05T10:21:08.723Z,24.62
2019-02-05T10:23:37.963Z,24.05
2019-02-05T10:26:07.605Z,23.22
2019-02-05T10:28:36.811Z,24.85
2019-02-05T10:31:06.020Z,21.68
2019-02-05T10:33:35.276Z,21.87
2019-02-05T10:36:05.049Z,23.10
2019-02-05T10:38:34.314Z,20.87
2019-02-05T10:41:04.613Z,23.86
2019-02-05T10:43:33.863Z,22.77
2019-02-05T10:46:04.188Z,27.68
2019-02-05T10:48:33.419Z,18.62
2019-02-05T10:51:02.665Z,21.82
2019-02-05T10:53:31.924Z,20.23
2019-02-05T10:56:01.145Z,21.00
2019-02-05T10:58:30.782Z,22.20
2019-02-05T11:01:00.000Z,20.97
2019-02-05T11:03:29.230Z,21.77
2019-02-05T11:05:58.440Z,23.10
2019-02-05T11:08:27.697Z,22.10
2019-02-05T11:10:56.907Z,21.35
2019-02-05T11:13:26.164Z,22.42
2019-02-05T11:15:55.434Z,21.90
2019-02-05T11:18:24.678Z,23.18
2019-02-05T11:20:53.886Z,24.57
2019-02-05T11:23:23.121Z,23.43
2019-02-05T11:25:52.338Z,24.27
2019-02-05T11:28:21.663Z,22.80
2019-02-05T11:30:51.207Z,24.23
2019-02-05T11:33:20.477Z,23.62
2019-02-05T11:35:49.683Z,23.22
2019-02-05T11:38:19.054Z,24.37
2019-02-05T11:40:48.687Z,24.70
2019-02-05T11:43:17.948Z,22.85
2019-02-05T11:45:47.231Z,26.12
2019-02-05T11:48:16.821Z,25.02
2019-02-05T11:50:46.109Z,23.52
2019-02-05T11:53:15.380Z,25.25
2019-02-05T11:55:44.732Z,25.45
2019-02-05T11:58:14.005Z,26.52
2019-02-05T12:00:44.866Z,25.65
2019-02-05T12:03:14.118Z,26.23
2019-02-05T12:05:43.332Z,24.72
2019-02-05T12:08:12.552Z,24.92
2019-02-05T12:10:41.805Z,28.05
2019-02-05T12:13:11.038Z,25.83
2019-02-05T12:15:40.246Z,25.72
2019-02-05T12:18:09.656Z,28.10
2019-02-05T12:20:38.900Z,28.83
2019-02-05T12:23:08.226Z,27.05
2019-02-05T12:25:37.438Z,28.75
2019-02-05T12:28:06.737Z,28.12
2019-02-05T12:30:44.879Z,30.05
2019-02-05T12:33:11.596Z,33.20
2019-02-05T12:35:40.802Z,31.02
2019-02-05T12:38:10.084Z,29.63
2019-02-05T12:40:39.292Z,31.93
2019-02-05T12:43:08.514Z,33.50
2019-02-05T12:45:38.613Z,33.67
2019-02-05T12:48:08.103Z,33.45
2019-02-05T12:50:39.310Z,34.78
2019-02-05T12:53:08.560Z,35.23
2019-02-05T12:55:37.808Z,35.55
2019-02-05T12:58:07.241Z,34.63
2019-02-05T13:00:38.683Z,36.28
2019-02-05T13:03:08.691Z,36.90
2019-02-05T13:05:38.251Z,39.80
2019-02-05T13:08:07.469Z,38.50
2019-02-05T13:10:39.419Z,36.85
2019-02-05T13:13:08.915Z,37.38
2019-02-05T13:15:38.136Z,39.48
2019-02-05T13:18:07.531Z,40.67
2019-02-05T13:20:37.187Z,40.38
2019-02-05T13:23:07.010Z,39.80
2019-02-05T13:25:36.214Z,41.25
2019-02-05T13:28:07.401Z,41.42
2019-02-05T13:30:37.640Z,38.45
2019-02-05T13:33:08.770Z,41.53
2019-02-05T13:35:38.024Z,42.98
2019-02-05T13:38:07.314Z,40.98
2019-02-05T13:40:36.580Z,41.45
2019-02-05T13:43:06.051Z,41.85
2019-02-05T13:45:37.468Z,42.73
2019-02-05T13:48:07.130Z,39.15
2019-02-05T13:50:36.376Z,42.83
2019-02-05T13:53:06.141Z,41.58
2019-02-05T13:55:38.203Z,39.75
2019-02-05T13:58:07.395Z,44.18
2019-02-05T14:00:45.129Z,44.42
2019-02-05T14:03:14.349Z,52.70
2019-02-05T14:05:43.676Z,42.53
2019-02-05T14:08:12.891Z,41.48
2019-02-05T14:10:46.742Z,42.20
2019-02-05T14:13:15.953Z,41.53
2019-02-05T14:15:47.834Z,42.65
2019-02-05T14:18:17.127Z,42.33
2019-02-05T14:20:46.467Z,44.93
2019-02-05T14:23:15.810Z,46.15
2019-02-05T14:25:45.095Z,45.88
2019-02-05T14:28:14.434Z,46.02
2019-02-05T14:30:52.316Z,45.48
2019-02-05T14:33:21.999Z,49.53
2019-02-05T14:35:51.250Z,51.18
2019-02-05T14:38:20.453Z,49.48
2019-02-05T14:40:49.715Z,49.58
2019-02-05T14:43:18.953Z,51.00
2019-02-05T14:45:48.343Z,51.48
2019-02-05T14:48:17.607Z,47.98
2019-02-05T14:50:47.945Z,49.67
2019-02-05T14:53:17.280Z,50.83
2019-02-05T14:55:46.500Z,51.28
2019-02-05T14:58:15.702Z,53.05
2019-02-05T15:00:45.036Z,55.63
2019-02-05T15:03:14.607Z,49.10
2019-02-05T15:05:45.104Z,53.00
2019-02-05T15:08:14.757Z,49.80
2019-02-05T15:10:43.961Z,52.50
2019-02-05T15:13:15.893Z,51.45
2019-02-05T15:15:44.513Z,51.73
2019-02-05T15:18:13.776Z,54.83
2019-02-05T15:20:47.484Z,52.95
2019-02-05T15:23:17.780Z,54.55
2019-02-05T15:25:47.029Z,58.40
2019-02-05T15:28:16.232Z,52.33
2019-02-05T15:30:45.734Z,50.05
2019-02-05T15:33:29.950Z,55.90
2019-02-05T15:36:00.829Z,58.63
2019-02-05T15:38:30.444Z,56.40
2019-02-05T15:40:59.695Z,57.08
2019-02-05T15:43:28.898Z,54.83
2019-02-05T15:45:58.191Z,58.15
2019-02-05T15:48:27.414Z,60.63
2019-02-05T15:50:56.648Z,64.12
2019-02-05T15:53:26.326Z,62.30
2019-02-05T15:55:55.579Z,59.88
2019-02-05T15:58:24.777Z,63.58
2019-02-05T16:00:54.010Z,63.45
2019-02-05T16:03:24.199Z,63.70
2019-02-05T16:05:53.443Z,63.38
2019-02-05T16:08:22.923Z,62.17
2019-02-05T16:10:53.062Z,62.20
2019-02-05T16:13:22.262Z,64.27
2019-02-05T16:15:51.510Z,60.83
2019-02-05T16:18:20.767Z,92.00
2019-02-05T16:20:50.086Z,63.02
2019-02-05T16:23:19.569Z,59.85
2019-02-05T16:25:48.820Z,61.08
2019-02-05T16:28:18.176Z,60.05
2019-02-05T16:30:47.438Z,61.60
2019-02-05T16:33:16.636Z,63.85
2019-02-05T16:35:45.948Z,60.05
2019-02-05T16:38:15.572Z,65.37
2019-02-05T16:40:45.132Z,62.67
2019-02-05T16:43:14.324Z,68.10
2019-02-05T16:45:43.624Z,62.67
2019-02-05T16:48:12.873Z,67.27
2019-02-05T16:50:44.786Z,70.27
2019-02-05T16:53:14.246Z,65.60
2019-02-05T16:55:43.515Z,71.62
2019-02-05T16:58:12.713Z,67.10
2019-02-05T17:00:41.963Z,73.42
2019-02-05T17:03:11.463Z,67.93
2019-02-05T17:05:42.250Z,66.33
2019-02-05T17:08:11.888Z,77.50
2019-02-05T17:10:41.177Z,67.15
2019-02-05T17:13:11.757Z,67.78
2019-02-05T17:16:00.436Z,67.40
2019-02-05T17:18:30.188Z,65.10
2019-02-05T17:20:59.382Z,71.00
2019-02-05T17:23:29.005Z,69.17
2019-02-05T17:25:58.266Z,70.92
2019-02-05T17:28:27.690Z,68.35
2019-02-05T17:30:59.813Z,71.82
2019-02-05T17:33:29.226Z,76.47
2019-02-05T17:35:58.759Z,69.12
2019-02-05T17:38:27.967Z,73.28
2019-02-05T17:40:57.229Z,70.30
2019-02-05T17:43:27.553Z,72.10
2019-02-05T17:45:56.799Z,74.90
2019-02-05T17:48:26.337Z,74.70
2019-02-05T17:50:56.095Z,70.12
2019-02-05T17:53:25.345Z,71.92
2019-02-05T17:55:54.598Z,72.50
2019-02-05T17:58:23.799Z,70.37
2019-02-05T18:01:00.985Z,68.57
2019-02-05T18:03:30.222Z,69.92
2019-02-05T18:05:59.540Z,65.78
2019-02-05T18:08:30.478Z,68.28
2019-02-05T18:10:59.727Z,68.30
2019-02-05T18:13:28.981Z,64.77
2019-02-05T18:15:59.776Z,65.22
2019-02-05T18:18:29.031Z,63.68
2019-02-05T18:20:58.268Z,60.73
2019-02-05T18:23:27.476Z,60.15
2019-02-05T18:25:56.789Z,59.05
2019-02-05T18:28:26.271Z,59.75
2019-02-05T18:30:56.042Z,60.17
2019-02-05T18:33:25.277Z,56.45
2019-02-05T18:35:54.762Z,63.33
2019-02-05T18:38:24.036Z,59.20
2019-02-05T18:40:53.240Z,58.52
2019-02-05T18:43:22.582Z,57.88
2019-02-05T18:45:52.115Z,59.47
2019-02-05T18:48:21.729Z,58.38
2019-02-05T18:50:51.060Z,57.33
2019-02-05T18:53:20.336Z,55.45
2019-02-05T18:55:49.553Z,54.80
2019-02-05T18:58:18.818Z,53.60
2019-02-05T19:00:48.346Z,52.17
2019-02-05T19:03:17.636Z,47.75
2019-02-05T19:05:47.356Z,47.60
2019-02-05T19:08:16.970Z,45.33
2019-02-05T19:10:46.190Z,45.20
2019-02-05T19:13:15.571Z,41.88
2019-02-05T19:15:45.156Z,44.70
2019-02-05T19:18:14.433Z,39.95
2019-02-05T19:20:43.770Z,43.05
2019-02-05T19:23:12.978Z,43.90
2019-02-05T19:25:49.365Z,43.73
2019-02-05T19:28:26.066Z,41.95
2019-02-05T19:30:56.914Z,45.58
2019-02-05T19:33:27.479Z,43.55
2019-02-05T19:35:56.903Z,46.70
2019-02-05T19:38:26.105Z,48.17
2019-02-05T19:40:57.459Z,44.30
2019-02-05T19:43:26.351Z,46.70
2019-02-05T19:46:13.171Z,45.43
2019-02-05T19:48:49.073Z,48.92
2019-02-05T19:51:18.210Z,47.23
2019-02-05T19:53:47.556Z,49.38
2019-02-05T19:56:16.757Z,49.55
2019-02-05T19:58:46.219Z,51.30
2019-02-05T20:01:18.394Z,45.98
2019-02-05T20:03:46.464Z,46.50
2019-02-05T20:06:15.699Z,48.63
2019-02-05T20:08:44.945Z,48.35
2019-02-05T20:11:14.149Z,46.30
2019-02-05T20:13:43.357Z,46.00
2019-02-05T20:16:12.695Z,52.95
2019-02-05T20:18:41.889Z,54.30
2019-02-05T20:21:11.168Z,50.90
2019-02-05T20:23:40.407Z,51.70
2019-02-05T20:26:09.615Z,57.25
2019-02-05T20:28:39.260Z,52.13
2019-02-05T20:31:08.460Z,55.10
2019-02-05T20:33:37.916Z,54.05
2019-02-05T20:36:07.115Z,57.80
2019-02-05T20:38:36.591Z,60.40
2019-02-05T20:41:06.030Z,58.95
2019-02-05T20:43:35.576Z,61.02
2019-02-05T20:46:04.781Z,57.05
2019-02-05T20:48:34.057Z,61.98
2019-02-05T20:51:04.175Z,61.50
2019-02-05T20:53:33.416Z,63.45
2019-02-05T20:56:02.640Z,63.05
2019-02-05T20:58:31.893Z,66.25
2019-02-05T21:01:01.443Z,69.50
2019-02-05T21:03:31.682Z,66.10
2019-02-05T21:06:00.950Z,72.85
2019-02-05T21:08:30.157Z,70.57
2019-02-05T21:10:59.399Z,69.67
2019-02-05T21:13:28.612Z,68.25
2019-02-05T21:15:57.861Z,69.20
2019-02-05T21:18:27.060Z,71.47
2019-02-05T21:20:56.402Z,71.67
2019-02-05T21:23:25.752Z,71.62
2019-02-05T21:25:54.967Z,72.50
2019-02-05T21:28:24.227Z,71.00
2019-02-05T21:30:53.434Z,70.75
2019-02-05T21:33:23.060Z,71.87
2019-02-05T21:35:52.401Z,73.92
2019-02-05T21:38:21.589Z,70.67
2019-02-05T21:40:50.834Z,76.28
2019-02-05T21:43:20.139Z,75.70
2019-02-05T21:45:49.423Z,73.30
2019-02-05T21:48:18.619Z,71.10
2019-02-05T21:50:48.013Z,69.72
2019-02-05T21:53:17.260Z,72.85
2019-02-05T21:55:46.589Z,75.92
2019-02-05T21:58:15.840Z,70.25
2019-02-05T22:00:46.040Z,74.40
2019-02-05T22:03:15.463Z,69.15
2019-02-05T22:05:45.172Z,73.70
2019-02-05T22:08:14.429Z,77.22
2019-02-05T22:10:43.768Z,80.83
2019-02-05T22:13:12.956Z,76.87
2019-02-05T22:15:42.197Z,78.33
2019-02-05T22:18:11.396Z,77.12
2019-02-05T22:20:40.632Z,81.42
2019-02-05T22:23:10.308Z,77.92
2019-02-05T22:25:39.550Z,80.57
2019-02-05T22:28:08.794Z,79.76
2019-02-05T22:30:38.870Z,83.80
2019-02-05T22:33:08.585Z,80.72
2019-02-05T22:35:37.821Z,80.22
2019-02-05T22:38:07.023Z,76.70
2019-02-05T22:40:36.216Z,77.27
2019-02-05T22:43:05.895Z,69.30
2019-02-05T22:45:35.079Z,78.00
2019-02-05T22:48:04.452Z,73.42
2019-02-05T22:50:35.905Z,77.78
2019-02-05T22:53:07.349Z,76.53
2019-02-05T22:55:36.704Z,73.33
2019-02-05T22:58:06.171Z,78.67
2019-02-05T23:00:51.058Z,76.05
2019-02-05T23:03:32.476Z,69.72
2019-02-05T23:06:20.047Z,72.47
2019-02-05T23:08:49.305Z,68.80
2019-02-05T23:11:22.095Z,73.70
2019-02-05T23:13:51.313Z,70.70
2019-02-05T23:16:20.622Z,74.30
2019-02-05T23:18:49.821Z,75.25
2019-02-05T23:21:19.057Z,77.07
2019-02-05T23:23:48.257Z,81.08
2019-02-05T23:26:17.876Z,77.15
2019-02-05T23:28:47.112Z,75.03
2019-02-05T23:31:16.394Z,70.65
2019-02-05T23:33:45.570Z,75.55
2019-02-05T23:36:14.787Z,71.35
2019-02-05T23:38:44.023Z,69.30
2019-02-05T23:41:13.733Z,71.12
2019-02-05T23:43:43.250Z,75.80
2019-02-05T23:46:12.494Z,73.52
2019-02-05T23:48:41.758Z,69.03
2019-02-05T23:51:11.332Z,69.32
2019-02-05T23:53:40.573Z,68.62
2019-02-05T23:56:10.177Z,71.47
2019-02-05T23:58:39.386Z,66.25
